createdAt,value
2022-10-11T00:00:24.859Z,98118.53
2022-10-11T00:02:26.583Z,98118.66
2022-10-11T00:04:27.914Z,98128.06
2022-10-11T00:06:29.231Z,98129.03
2022-10-11T00:08:31.042Z,98134.25
2022-10-11T00:10:32.567Z,98145.41
2022-10-11T00:12:33.847Z,98141.22
2022-10-11T00:14:35.192Z,98139.59
2022-10-11T00:16:38.607Z,98143.06
2022-10-11T00:18:39.940Z,98140.50
2022-10-11T00:20:41.237Z,98148.13
2022-10-11T00:22:42.606Z,98152.38
2022-10-11T00:24:43.910Z,98154.94
2022-10-11T00:26:46.997Z,98162.59
2022-10-11T00:28:48.534Z,98163.47
2022-10-11T00:30:49.861Z,98166.88
2022-10-11T00:32:51.159Z,98174.59
2022-10-11T00:34:52.496Z,98178.06
2022-10-11T00:36:53.773Z,98174.69
2022-10-11T00:38:55.108Z,98182.41
2022-10-11T00:40:56.630Z,98180.75
2022-10-11T00:42:57.911Z,98183.34
2022-10-11T00:44:59.178Z,98186.81
2022-10-11T00:47:00.451Z,98184.28
2022-10-11T00:49:01.725Z,98193.69
2022-10-11T00:51:03.434Z,98186.91
2022-10-11T00:53:04.966Z,98191.19
2022-10-11T00:55:06.222Z,98194.63
2022-10-11T00:57:07.511Z,98190.41
2022-10-11T00:59:08.786Z,98194.66
2022-10-11T01:01:10.087Z,98195.50
2022-10-11T01:03:11.382Z,98195.50
2022-10-11T01:05:28.520Z,98199.75
2022-10-11T01:07:31.447Z,98200.56
2022-10-11T01:09:32.710Z,98209.06
2022-10-11T01:11:34.014Z,98208.22
2022-10-11T01:13:35.314Z,98218.47
2022-10-11T01:15:36.664Z,98216.75
2022-10-11T01:17:37.936Z,98224.41
2022-10-11T01:19:39.204Z,98223.50
2022-10-11T01:21:40.527Z,98227.78
2022-10-11T01:23:41.802Z,98221.00
2022-10-11T01:25:43.119Z,98224.41
2022-10-11T01:27:44.435Z,98223.59
2022-10-11T01:29:45.728Z,98223.66
2022-10-11T01:31:47.339Z,98225.41
2022-10-11T01:33:48.618Z,98229.69
2022-10-11T01:35:49.942Z,98226.31
2022-10-11T01:37:51.284Z,98222.91
2022-10-11T01:39:52.586Z,98233.13
2022-10-11T01:41:53.890Z,98228.03
2022-10-11T01:43:55.195Z,98223.75
2022-10-11T01:45:56.478Z,98227.94
2022-10-11T01:47:57.783Z,98221.94
2022-10-11T01:49:59.098Z,98227.00
2022-10-11T01:52:00.371Z,98244.81
2022-10-11T01:54:01.693Z,98237.22
2022-10-11T01:56:03.325Z,98237.22
2022-10-11T01:58:04.814Z,98241.47
2022-10-11T02:00:06.326Z,98253.28
2022-10-11T02:02:07.602Z,98242.13
2022-10-11T02:04:08.900Z,98241.38
2022-10-11T02:06:10.187Z,98250.72
2022-10-11T02:08:11.503Z,98267.75
2022-10-11T02:10:12.841Z,98256.69
2022-10-11T02:12:14.141Z,98257.53
2022-10-11T02:14:15.459Z,98260.06
2022-10-11T02:16:16.860Z,98269.41
2022-10-11T02:18:18.225Z,98264.28
2022-10-11T02:20:19.736Z,98258.34
2022-10-11T02:22:21.003Z,98266.84
2022-10-11T02:24:22.494Z,98273.66
2022-10-11T02:26:23.789Z,98266.03
2022-10-11T02:28:25.237Z,98266.91
2022-10-11T02:30:26.535Z,98266.09
2022-10-11T02:32:27.817Z,98266.97
2022-10-11T02:34:29.078Z,98271.22
2022-10-11T02:36:31.143Z,98267.88
2022-10-11T02:38:32.439Z,98261.88
2022-10-11T02:40:33.735Z,98277.16
2022-10-11T02:42:36.519Z,98137.28
2022-10-11T02:44:37.806Z,98269.53
2022-10-11T02:46:39.077Z,98278.03
2022-10-11T02:48:40.419Z,98275.47
2022-10-11T02:50:41.696Z,98277.13
2022-10-11T02:52:42.965Z,98272.03
2022-10-11T02:54:44.214Z,98288.19
2022-10-11T02:56:46.323Z,98288.16
2022-10-11T02:58:47.627Z,98281.41
2022-10-11T03:00:48.897Z,98287.34
2022-10-11T03:02:50.170Z,98290.72
2022-10-11T03:04:51.427Z,98296.66
2022-10-11T03:06:52.682Z,98297.50
2022-10-11T03:08:53.987Z,98297.56
2022-10-11T03:10:55.286Z,98294.16
2022-10-11T03:12:56.769Z,98292.44
2022-10-11T03:14:58.111Z,98301.81
2022-10-11T03:17:17.179Z,98306.06
2022-10-11T03:19:21.806Z,98317.06
2022-10-11T03:21:25.115Z,98312.00
2022-10-11T03:23:26.388Z,98311.16
2022-10-11T03:25:27.707Z,98183.16
2022-10-11T03:27:28.985Z,98316.22
2022-10-11T03:29:30.288Z,98319.63
2022-10-11T03:31:31.606Z,98324.66
2022-10-11T03:33:32.902Z,98316.94
2022-10-11T03:35:34.213Z,98328.91
2022-10-11T03:37:35.506Z,98323.81
2022-10-11T03:39:36.870Z,98319.53
2022-10-11T03:41:38.177Z,98326.34
2022-10-11T03:43:39.669Z,98329.72
2022-10-11T03:45:42.451Z,98336.53
2022-10-11T03:47:43.734Z,98339.09
2022-10-11T03:49:45.048Z,98343.41
2022-10-11T03:51:46.315Z,98341.69
2022-10-11T03:53:47.603Z,98340.91
2022-10-11T03:55:48.862Z,98334.97
2022-10-11T03:57:50.194Z,98337.53
2022-10-11T03:59:51.565Z,98343.47
2022-10-11T04:01:52.917Z,98346.84
2022-10-11T04:03:54.250Z,98347.69
2022-10-11T04:05:55.565Z,98344.28
2022-10-11T04:07:56.843Z,98350.22
2022-10-11T04:09:58.232Z,98358.72
2022-10-11T04:11:59.558Z,98346.84
2022-10-11T04:14:03.552Z,98356.19
2022-10-11T04:16:05.081Z,98357.94
2022-10-11T04:18:07.106Z,98368.16
2022-10-11T04:20:08.389Z,98366.44
2022-10-11T04:22:09.657Z,98379.97
2022-10-11T04:24:11.034Z,98385.81
2022-10-11T04:26:12.367Z,98379.13
2022-10-11T04:28:13.674Z,98381.72
2022-10-11T04:30:14.983Z,98391.97
2022-10-11T04:32:16.241Z,98397.94
2022-10-11T04:34:17.686Z,98395.38
2022-10-11T04:36:18.998Z,98397.09
2022-10-11T04:38:20.439Z,98397.06
2022-10-11T04:40:21.698Z,98407.31
2022-10-11T04:42:23.044Z,98409.88
2022-10-11T04:44:24.359Z,98416.69
2022-10-11T04:46:25.860Z,98414.97
2022-10-11T04:48:27.154Z,98417.50
2022-10-11T04:50:28.493Z,98425.16
2022-10-11T04:52:29.753Z,98419.19
2022-10-11T04:54:31.040Z,98424.25
2022-10-11T04:56:32.357Z,98419.16
2022-10-11T04:58:33.609Z,98428.47
2022-10-11T05:00:34.862Z,98431.91
2022-10-11T05:02:36.139Z,98429.34
2022-10-11T05:04:37.454Z,98452.31
2022-10-11T05:06:38.731Z,98431.03
2022-10-11T05:08:40.010Z,98431.03
2022-10-11T05:10:41.474Z,98438.66
2022-10-11T05:12:42.743Z,98437.81
2022-10-11T05:14:44.030Z,98445.47
2022-10-11T05:16:45.347Z,98436.97
2022-10-11T05:18:46.604Z,98445.44
2022-10-11T05:20:47.908Z,98445.44
2022-10-11T05:22:49.191Z,98447.97
2022-10-11T05:24:50.499Z,98452.19
2022-10-11T05:26:51.897Z,98448.81
2022-10-11T05:28:53.270Z,98463.28
2022-10-11T05:30:54.611Z,98452.22
2022-10-11T05:32:55.928Z,98464.16
2022-10-11T05:34:57.187Z,98459.94
2022-10-11T05:36:58.598Z,98467.59
2022-10-11T05:38:59.874Z,98472.69
2022-10-11T05:41:01.153Z,98475.22
2022-10-11T05:43:02.423Z,98481.16
2022-10-11T05:45:03.691Z,98480.31
2022-10-11T05:47:04.978Z,98485.41
2022-10-11T05:49:06.283Z,98486.25
2022-10-11T05:51:07.559Z,98493.00
2022-10-11T05:53:08.869Z,98496.41
2022-10-11T05:55:10.191Z,98498.13
2022-10-11T05:57:11.445Z,98501.56
2022-10-11T05:59:12.733Z,98502.41
2022-10-11T06:01:14.024Z,98513.47
2022-10-11T06:03:15.519Z,98510.09
2022-10-11T06:05:16.833Z,98512.69
2022-10-11T06:07:18.326Z,98514.41
2022-10-11T06:09:19.618Z,98517.81
2022-10-11T06:11:20.929Z,98525.47
2022-10-11T06:13:22.220Z,98519.53
2022-10-11T06:15:23.557Z,98529.75
2022-10-11T06:17:24.893Z,98533.13
2022-10-11T06:19:26.162Z,98531.41
2022-10-11T06:21:27.458Z,98534.81
2022-10-11T06:23:28.743Z,98541.63
2022-10-11T06:25:30.089Z,98536.50
2022-10-11T06:27:31.419Z,98534.75
2022-10-11T06:29:32.679Z,98550.03
2022-10-11T06:31:33.998Z,98414.91
2022-10-11T06:33:35.274Z,98554.28
2022-10-11T06:35:36.541Z,98555.16
2022-10-11T06:37:37.818Z,98563.66
2022-10-11T06:39:39.141Z,98566.22
2022-10-11T06:41:40.407Z,98571.34
2022-10-11T06:43:41.731Z,98568.75
2022-10-11T06:45:43.049Z,98570.47
2022-10-11T06:47:44.399Z,98580.69
2022-10-11T06:49:45.714Z,98579.03
2022-10-11T06:51:46.987Z,98578.22
2022-10-11T06:53:48.279Z,98582.47
2022-10-11T06:55:49.587Z,98591.81
2022-10-11T06:57:50.850Z,98596.91
2022-10-11T06:59:52.152Z,98596.88
2022-10-11T07:01:53.431Z,98595.19
2022-10-11T07:03:54.838Z,98598.56
2022-10-11T07:05:58.975Z,98597.75
2022-10-11T07:08:03.484Z,98607.06
2022-10-11T07:10:04.754Z,98602.00
2022-10-11T07:12:06.034Z,98608.72
2022-10-11T07:14:08.059Z,98603.47
2022-10-11T07:16:09.848Z,98610.19
2022-10-11T07:18:11.321Z,98611.22
2022-10-11T07:20:12.591Z,98608.63
2022-10-11T07:22:13.888Z,98613.81
2022-10-11T07:24:15.179Z,98611.38
2022-10-11T07:26:16.468Z,98620.81
2022-10-11T07:28:17.820Z,98609.78
2022-10-11T07:30:19.172Z,98626.50
2022-10-11T07:32:20.431Z,98621.34
2022-10-11T07:34:22.881Z,98622.09
2022-10-11T07:36:24.236Z,98623.03
2022-10-11T07:38:25.522Z,98625.00
2022-10-11T07:40:26.938Z,98632.75
2022-10-11T07:42:28.241Z,98627.69
2022-10-11T07:44:29.631Z,98628.56
2022-10-11T07:46:31.281Z,98633.69
2022-10-11T07:48:32.587Z,98633.69
2022-10-11T07:50:33.901Z,98634.59
2022-10-11T07:52:35.642Z,98635.44
2022-10-11T07:54:36.974Z,98631.16
2022-10-11T07:56:39.924Z,98633.69
2022-10-11T07:58:41.217Z,98630.25
2022-10-11T08:00:43.132Z,98633.63
2022-10-11T08:02:44.447Z,98637.81
2022-10-11T08:04:45.798Z,98641.16
2022-10-11T08:06:51.077Z,98636.03
2022-10-11T08:08:54.613Z,98641.91
2022-10-11T08:10:55.940Z,98644.41
2022-10-11T08:13:01.961Z,98638.44
2022-10-11T08:15:05.504Z,98633.25
2022-10-11T08:17:06.888Z,98632.13
2022-10-11T08:19:08.166Z,98643.63
2022-10-11T08:21:09.513Z,98644.34
2022-10-11T08:23:10.839Z,98639.09
2022-10-11T08:25:12.154Z,98642.19
2022-10-11T08:27:13.426Z,98641.25
2022-10-11T08:29:14.743Z,98636.88
2022-10-11T08:31:16.165Z,98639.03
2022-10-11T08:33:17.534Z,98642.44
2022-10-11T08:35:18.859Z,98632.19
2022-10-11T08:37:20.136Z,98644.31
2022-10-11T08:39:21.404Z,98646.34
2022-10-11T08:41:23.024Z,98643.94
2022-10-11T08:43:24.354Z,98646.13
2022-10-11T08:45:25.678Z,98648.28
2022-10-11T08:47:27.720Z,98650.97
2022-10-11T08:49:29.076Z,98658.66
2022-10-11T08:51:30.698Z,98652.72
2022-10-11T08:53:32.279Z,98655.19
2022-10-11T08:55:33.546Z,98654.22
2022-10-11T08:57:34.899Z,98658.50
2022-10-11T08:59:36.176Z,98655.97
2022-10-11T09:01:37.531Z,98659.34
2022-10-11T09:03:38.837Z,98655.94
2022-10-11T09:05:40.119Z,98656.81
2022-10-11T09:07:41.500Z,98661.19
2022-10-11T09:09:42.783Z,98661.16
2022-10-11T09:11:45.665Z,98680.69
2022-10-11T09:13:46.990Z,98660.31
2022-10-11T09:15:48.264Z,98661.25
2022-10-11T09:17:49.545Z,98674.16
2022-10-11T09:19:51.046Z,98658.84
2022-10-11T09:21:52.703Z,98667.47
2022-10-11T09:23:53.974Z,98666.44
2022-10-11T09:25:57.594Z,98667.22
2022-10-11T09:28:02.987Z,98671.41
2022-10-11T09:30:05.010Z,98665.53
2022-10-11T09:32:06.706Z,98671.63
2022-10-11T09:34:07.980Z,98669.19
2022-10-11T09:36:09.472Z,98678.63
2022-10-11T09:38:10.851Z,98535.69
2022-10-11T09:40:12.123Z,98669.34
2022-10-11T09:42:13.398Z,98671.78
2022-10-11T09:44:14.713Z,98669.09
2022-10-11T09:46:15.999Z,98671.56
2022-10-11T09:48:17.306Z,98669.06
2022-10-11T09:50:18.749Z,98667.69
2022-10-11T09:52:20.139Z,98671.59
2022-10-11T09:54:27.363Z,98671.59
2022-10-11T09:56:28.658Z,98667.56
2022-10-11T09:58:30.139Z,98556.19
2022-10-11T10:00:33.902Z,98662.88
2022-10-11T10:02:35.176Z,98660.63
2022-10-11T10:04:36.466Z,98660.72
2022-10-11T10:06:37.801Z,98664.56
2022-10-11T10:08:39.149Z,98663.91
2022-10-11T10:10:40.465Z,98657.19
2022-10-11T10:12:41.734Z,98667.56
2022-10-11T10:14:43.069Z,98668.97
2022-10-11T10:16:44.354Z,98657.22
2022-10-11T10:18:45.642Z,98668.91
2022-10-11T10:20:46.946Z,98664.41
2022-10-11T10:22:48.358Z,98673.31
2022-10-11T10:24:49.666Z,98674.28
2022-10-11T10:26:51.198Z,98662.94
2022-10-11T10:28:52.593Z,98672.25
2022-10-11T10:30:54.564Z,98667.66
2022-10-11T10:32:55.945Z,98674.72
2022-10-11T10:34:57.217Z,98676.41
2022-10-11T10:36:58.498Z,98674.75
2022-10-11T10:39:00.090Z,98677.34
2022-10-11T10:41:01.428Z,98680.06
2022-10-11T10:43:04.293Z,98679.34
2022-10-11T10:45:11.200Z,98673.94
2022-10-11T10:47:15.565Z,98667.09
2022-10-11T10:49:48.416Z,98678.44
2022-10-11T10:51:38.266Z,98674.28
2022-10-11T10:53:41.760Z,98682.94
2022-10-11T10:55:43.055Z,98672.06
2022-10-11T10:57:44.390Z,98671.84
2022-10-11T10:59:45.701Z,98666.19
2022-10-11T11:01:47.053Z,98678.16
2022-10-11T11:03:48.398Z,98678.19
2022-10-11T11:05:49.692Z,98677.34
2022-10-11T11:09:52.296Z,98674.78
2022-10-11T11:11:53.636Z,98673.31
2022-10-11T11:13:54.932Z,98671.13
2022-10-11T11:15:56.216Z,98677.19
2022-10-11T11:17:57.506Z,98680.69
2022-10-11T11:19:58.786Z,98679.00
2022-10-11T11:22:00.082Z,98673.88
2022-10-11T11:24:01.407Z,98668.00
2022-10-11T11:26:04.012Z,98676.78
2022-10-11T11:28:05.541Z,98676.13
2022-10-11T11:30:06.874Z,98677.06
2022-10-11T11:32:08.215Z,98671.84
2022-10-11T11:34:09.496Z,98558.53
2022-10-11T11:36:10.787Z,98672.47
2022-10-11T11:38:12.218Z,98668.94
2022-10-11T11:40:13.609Z,98668.84
2022-10-11T11:42:15.393Z,98668.94
2022-10-11T11:44:16.668Z,98667.19
2022-10-11T11:46:17.981Z,98663.88
2022-10-11T11:48:19.349Z,98670.72
2022-10-11T11:50:23.948Z,98676.88
2022-10-11T11:52:25.288Z,98669.13
2022-10-11T11:54:28.213Z,98669.06
2022-10-11T11:56:29.507Z,98665.66
2022-10-11T11:58:30.893Z,98662.41
2022-10-11T12:00:32.191Z,98671.03
2022-10-11T12:02:33.632Z,98661.72
2022-10-11T12:04:35.127Z,98667.66
2022-10-11T12:06:47.699Z,98665.94
2022-10-11T12:08:57.796Z,98660.88
2022-10-11T12:10:59.075Z,98661.84
2022-10-11T12:13:00.333Z,98664.56
2022-10-11T12:15:01.615Z,98657.41
2022-10-11T12:17:02.886Z,98665.69
2022-10-11T12:19:04.174Z,98655.03
2022-10-11T12:21:06.104Z,98655.94
2022-10-11T12:23:07.741Z,98660.13
2022-10-11T12:25:09.413Z,98653.28
2022-10-11T12:27:10.700Z,98666.06
2022-10-11T12:29:11.978Z,98658.94
2022-10-11T12:31:13.266Z,98651.38
2022-10-11T12:33:14.634Z,98651.84
2022-10-11T12:37:17.169Z,98651.88
2022-10-11T12:39:18.464Z,98651.97
2022-10-11T12:41:19.755Z,98657.16
2022-10-11T12:43:21.034Z,98652.13
2022-10-11T12:45:22.337Z,98655.56
2022-10-11T12:47:23.616Z,98650.28
2022-10-11T12:49:24.985Z,98653.28
2022-10-11T12:51:26.657Z,98653.06
2022-10-11T12:53:27.939Z,98651.31
2022-10-11T12:55:29.227Z,98645.44
2022-10-11T12:57:30.500Z,98642.59
2022-10-11T12:59:31.786Z,98641.13
2022-10-11T13:01:33.153Z,98642.97
2022-10-11T13:03:34.547Z,98641.34
2022-10-11T13:05:35.824Z,98636.22
2022-10-11T13:07:37.093Z,98640.50
2022-10-11T13:09:46.603Z,98645.63
2022-10-11T13:11:50.210Z,98643.84
2022-10-11T13:13:51.497Z,98649.59
2022-10-11T13:15:52.768Z,98647.41
2022-10-11T13:17:54.249Z,98657.59
2022-10-11T13:19:55.531Z,98654.44
2022-10-11T13:21:56.851Z,98647.28
2022-10-11T13:23:58.168Z,98652.13
2022-10-11T13:25:59.432Z,98649.97
2022-10-11T13:28:00.754Z,98655.03
2022-10-11T13:30:02.526Z,98660.66
2022-10-11T13:32:03.799Z,98656.97
2022-10-11T13:34:05.983Z,98653.88
2022-10-11T13:36:07.646Z,98657.97
2022-10-11T13:38:09.291Z,98649.81
2022-10-11T13:40:10.638Z,98656.78
2022-10-11T13:42:11.927Z,98653.53
2022-10-11T13:44:13.219Z,98655.09
2022-10-11T13:46:14.527Z,98661.44
2022-10-11T13:48:15.978Z,98659.69
2022-10-11T13:50:17.269Z,98666.25
2022-10-11T13:52:18.558Z,98662.38
2022-10-11T13:54:19.862Z,98657.31
2022-10-11T13:56:21.148Z,98655.50
2022-10-11T13:58:22.426Z,98653.13
2022-10-11T14:00:23.826Z,98661.38
2022-10-11T14:02:25.095Z,98650.44
2022-10-11T14:04:29.703Z,98663.34
2022-10-11T14:06:31.307Z,98657.91
2022-10-11T14:08:32.645Z,98661.22
2022-10-11T14:10:34.062Z,98656.16
2022-10-11T14:12:37.002Z,98657.88
2022-10-11T14:14:38.479Z,98661.81
2022-10-11T14:16:39.770Z,98649.72
2022-10-11T14:18:41.114Z,98658.06
2022-10-11T14:20:42.444Z,98654.72
2022-10-11T14:22:43.724Z,98649.56
2022-10-11T14:24:45.060Z,98651.22
2022-10-11T14:26:46.402Z,98652.13
2022-10-11T14:28:47.739Z,98651.28
2022-10-11T14:30:49.172Z,98642.44
2022-10-11T14:32:50.459Z,98639.88
2022-10-11T14:34:52.689Z,98649.56
2022-10-11T14:36:54.039Z,98653.16
2022-10-11T14:38:55.358Z,98644.00
2022-10-11T14:40:56.690Z,98638.81
2022-10-11T14:43:00.037Z,98653.28
2022-10-11T14:45:01.303Z,98654.06
2022-10-11T14:47:06.566Z,98653.25
2022-10-11T14:49:07.853Z,98660.63
2022-10-11T14:51:09.197Z,98652.44
2022-10-11T14:53:10.516Z,98659.50
2022-10-11T14:55:11.803Z,98654.84
2022-10-11T14:57:13.150Z,98650.06
2022-10-11T14:59:14.423Z,98653.53
2022-10-11T15:01:15.763Z,98655.03
2022-10-11T15:03:17.121Z,98655.41
2022-10-11T15:05:18.425Z,98653.88
2022-10-11T15:07:19.972Z,98648.81
2022-10-11T15:09:21.409Z,98654.84
2022-10-11T15:11:22.693Z,98654.88
2022-10-11T15:13:24.032Z,98657.50
2022-10-11T15:15:25.317Z,98651.53
2022-10-11T15:17:26.602Z,98646.63
2022-10-11T15:19:30.226Z,98654.88
2022-10-11T15:21:31.505Z,98658.03
2022-10-11T15:23:32.787Z,98660.19
2022-10-11T15:25:34.641Z,98654.47
2022-10-11T15:27:35.939Z,98657.88
2022-10-11T15:29:37.211Z,98660.34
2022-10-11T15:31:38.534Z,98658.56
2022-10-11T15:33:39.789Z,98658.19
2022-10-11T15:35:41.091Z,98652.28
2022-10-11T15:37:42.427Z,98658.78
2022-10-11T15:39:43.927Z,98658.13
2022-10-11T15:41:48.068Z,98668.41
2022-10-11T15:43:49.390Z,98663.13
2022-10-11T15:45:50.758Z,98661.22
2022-10-11T15:47:52.045Z,98660.16
2022-10-11T15:49:53.344Z,98657.75
2022-10-11T15:51:54.617Z,98662.94
2022-10-11T15:53:56.429Z,98663.69
2022-10-11T15:55:57.726Z,98664.53
2022-10-11T15:57:59.062Z,98663.00
2022-10-11T16:00:00.373Z,98663.50
2022-10-11T16:02:01.720Z,98662.88
2022-10-11T16:04:03.046Z,98672.31
2022-10-11T16:06:05.715Z,98655.06
2022-10-11T16:08:07.295Z,98662.50
2022-10-11T16:10:09.146Z,98663.13
2022-10-11T16:12:10.438Z,98663.94
2022-10-11T16:14:12.236Z,98663.22
2022-10-11T16:16:13.584Z,98666.69
2022-10-11T16:18:14.869Z,98673.56
2022-10-11T16:20:16.191Z,98670.19
2022-10-11T16:22:17.484Z,98668.31
2022-10-11T16:24:18.802Z,98672.63
2022-10-11T16:26:20.093Z,98676.81
2022-10-11T16:28:21.426Z,98674.31
2022-10-11T16:30:22.835Z,98681.03
2022-10-11T16:32:24.400Z,98678.00
2022-10-11T16:34:25.740Z,98675.16
2022-10-11T16:36:36.382Z,98679.63
2022-10-11T16:38:37.870Z,98681.28
2022-10-11T16:40:39.191Z,98689.94
2022-10-11T16:42:40.489Z,98687.44
2022-10-11T16:44:41.837Z,98689.56
2022-10-11T16:46:46.123Z,98695.19
2022-10-11T16:48:47.441Z,98693.53
2022-10-11T16:50:48.733Z,98692.66
2022-10-11T16:52:50.055Z,98699.47
2022-10-11T16:54:51.495Z,98694.94
2022-10-11T16:56:52.881Z,98694.22
2022-10-11T16:58:54.178Z,98697.53
2022-10-11T17:01:01.497Z,98696.91
2022-10-11T17:03:03.224Z,98694.91
2022-10-11T17:05:04.538Z,98694.84
2022-10-11T17:07:08.087Z,98703.94
2022-10-11T17:09:09.382Z,98702.13
2022-10-11T17:11:10.675Z,98707.81
2022-10-11T17:13:11.998Z,98705.22
2022-10-11T17:15:13.745Z,98705.56
2022-10-11T17:17:15.006Z,98710.88
2022-10-11T17:19:16.479Z,98713.56
2022-10-11T17:21:17.814Z,98706.88
2022-10-11T17:23:19.203Z,98707.72
2022-10-11T17:25:21.210Z,98706.59
2022-10-11T17:27:22.531Z,98575.81
2022-10-11T17:29:27.262Z,98702.19
2022-10-11T17:31:28.592Z,98703.16
2022-10-11T17:33:29.878Z,98709.25
2022-10-11T17:35:31.162Z,98705.88
2022-10-11T17:37:32.523Z,98711.81
2022-10-11T17:39:34.105Z,98712.97
2022-10-11T17:41:35.411Z,98708.34
2022-10-11T17:43:36.714Z,98711.75
2022-10-11T17:45:37.998Z,98702.41
2022-10-11T17:47:40.237Z,98710.16
2022-10-11T17:49:44.573Z,98716.97
2022-10-11T17:51:45.866Z,98712.03
2022-10-11T17:53:47.167Z,98705.84
2022-10-11T17:55:50.418Z,98704.94
2022-10-11T17:58:06.857Z,98706.66
2022-10-11T18:00:08.178Z,98708.25
2022-10-11T18:02:09.496Z,98706.50
2022-10-11T18:04:16.591Z,98710.69
2022-10-11T18:10:27.338Z,98709.78
2022-10-11T18:12:31.358Z,98709.31
2022-10-11T18:14:32.635Z,98713.72
2022-10-11T18:16:36.630Z,98715.63
2022-10-11T18:18:43.675Z,98718.31
2022-10-11T18:20:50.863Z,98719.97
2022-10-11T18:22:56.255Z,98715.41
2022-10-11T18:25:00.801Z,98714.94
2022-10-11T18:27:02.190Z,98720.28
2022-10-11T18:29:03.457Z,98719.59
2022-10-11T18:31:10.001Z,98704.34
2022-10-11T18:33:13.737Z,98710.34
2022-10-11T18:35:15.047Z,98707.84
2022-10-11T18:37:16.342Z,98706.22
2022-10-11T18:39:21.819Z,98704.53
2022-10-11T18:41:23.155Z,98701.59
2022-10-11T18:43:24.466Z,98707.00
2022-10-11T18:45:25.814Z,98704.19
2022-10-11T18:47:33.115Z,98700.63
2022-10-11T18:49:34.386Z,98703.09
2022-10-11T18:51:35.676Z,98706.41
2022-10-11T18:53:39.804Z,98697.94
2022-10-11T18:55:41.132Z,98709.78
2022-10-11T18:57:42.503Z,98702.94
2022-10-11T18:59:43.861Z,98714.00
2022-10-11T19:01:54.154Z,98702.81
2022-10-11T19:03:56.757Z,98700.28
2022-10-11T19:05:58.043Z,98709.56
2022-10-11T19:08:05.486Z,98701.81
2022-10-11T19:10:06.771Z,98699.22
2022-10-11T19:12:08.106Z,98700.03
2022-10-11T19:14:11.021Z,98710.22
2022-10-11T19:16:12.335Z,98705.22
2022-10-11T19:18:15.941Z,98709.22
2022-10-11T19:20:20.880Z,98703.34
2022-10-11T19:22:22.198Z,98708.66
2022-10-11T19:24:24.334Z,98704.44
2022-10-11T19:26:26.973Z,98700.94
2022-10-11T19:28:28.823Z,98700.78
2022-10-11T19:30:33.267Z,98700.72
2022-10-11T19:32:34.580Z,98701.56
2022-10-11T19:34:38.623Z,98701.47
2022-10-11T19:36:42.223Z,98704.75
2022-10-11T19:38:43.554Z,98709.16
2022-10-11T19:40:44.831Z,98711.72
2022-10-11T19:42:46.212Z,98710.50
2022-10-11T19:44:50.498Z,98701.00
2022-10-11T19:46:52.766Z,98706.81
2022-10-11T19:48:54.535Z,98698.09
2022-10-11T19:50:58.982Z,98707.56
2022-10-11T19:53:00.251Z,98700.66
2022-10-11T19:55:01.524Z,98701.63
2022-10-11T19:57:03.380Z,98703.94
2022-10-11T19:59:06.372Z,98708.91
2022-10-11T20:01:07.813Z,98708.09
2022-10-11T20:03:09.387Z,98700.41
2022-10-11T20:05:10.680Z,98703.03
2022-10-11T20:07:12.045Z,98701.38
2022-10-11T20:09:30.652Z,98700.50
2022-10-11T20:11:32.318Z,98703.19
2022-10-11T20:13:35.167Z,98698.88
2022-10-11T20:15:36.672Z,98702.19
2022-10-11T20:17:50.402Z,98700.47
2022-10-11T20:19:52.723Z,98700.41
2022-10-11T20:21:54.003Z,98698.81
2022-10-11T20:23:55.278Z,98706.34
2022-10-11T20:25:56.850Z,98698.75
2022-10-11T20:27:58.154Z,98703.06
2022-10-11T20:30:00.423Z,98709.75
2022-10-11T20:32:01.760Z,98709.69
2022-10-11T20:34:04.205Z,98706.34
2022-10-11T20:36:05.558Z,98721.66
2022-10-11T20:38:06.841Z,98699.50
2022-10-11T20:40:11.146Z,98715.84
2022-10-11T20:42:12.474Z,98714.13
2022-10-11T20:44:16.055Z,98717.56
2022-10-11T20:46:17.575Z,98721.03
2022-10-11T20:48:18.996Z,98715.91
2022-10-11T20:50:23.098Z,98721.06
2022-10-11T20:52:24.562Z,98733.13
2022-10-11T20:54:25.866Z,98710.97
2022-10-11T20:56:27.154Z,98718.59
2022-10-11T20:58:34.138Z,98713.53
2022-10-11T21:00:35.442Z,98704.19
2022-10-11T21:02:36.752Z,98727.91
2022-10-11T21:04:38.009Z,98717.19
2022-10-11T21:06:39.342Z,98716.78
2022-10-11T21:08:40.656Z,98714.84
2022-10-11T21:10:42.422Z,98715.66
2022-10-11T21:12:43.696Z,98722.47
2022-10-11T21:14:44.969Z,98711.31
2022-10-11T21:16:46.298Z,98713.91
2022-10-11T21:18:47.576Z,98720.72
2022-10-11T21:20:48.897Z,98717.31
2022-10-11T21:22:50.163Z,98715.44
2022-10-11T21:24:51.463Z,98714.50
2022-10-11T21:26:55.836Z,98705.78
2022-10-11T21:28:59.754Z,98709.22
2022-10-11T21:31:01.031Z,98706.56
2022-10-11T21:33:02.323Z,98710.72
2022-10-11T21:35:03.585Z,98708.19
2022-10-11T21:37:05.068Z,98713.97
2022-10-11T21:39:06.415Z,98709.56
2022-10-11T21:41:07.698Z,98707.41
2022-10-11T21:43:08.966Z,98709.13
2022-10-11T21:45:10.221Z,98710.66
2022-10-11T21:47:12.445Z,98714.19
2022-10-11T21:49:14.049Z,98713.34
2022-10-11T21:51:15.354Z,98715.19
2022-10-11T21:53:16.613Z,98708.31
2022-10-11T21:55:17.907Z,98710.59
2022-10-11T21:57:19.174Z,98708.16
2022-10-11T21:59:20.447Z,98709.75
2022-10-11T22:01:21.777Z,98712.50
2022-10-11T22:03:23.132Z,98719.03
2022-10-11T22:05:24.527Z,98717.91
2022-10-11T22:07:25.817Z,98719.53
2022-10-11T22:09:28.422Z,98714.19
2022-10-11T22:11:29.709Z,98717.00
2022-10-11T22:13:31.017Z,98722.97
2022-10-11T22:15:32.326Z,98710.66
2022-10-11T22:17:33.598Z,98714.34
2022-10-11T22:19:34.854Z,98713.47
2022-10-11T22:21:37.565Z,98710.84
2022-10-11T22:23:41.447Z,98710.28
2022-10-11T22:25:42.758Z,98706.34
2022-10-11T22:27:44.011Z,98707.59
2022-10-11T22:29:45.307Z,98710.00
2022-10-11T22:31:46.598Z,98714.75
2022-10-11T22:33:47.901Z,98709.47
2022-10-11T22:35:49.218Z,98705.09
2022-10-11T22:37:50.543Z,98716.03
2022-10-11T22:39:51.822Z,98710.00
2022-10-11T22:41:53.096Z,98709.97
2022-10-11T22:43:54.416Z,98711.69
2022-10-11T22:45:55.738Z,98721.03
2022-10-11T22:47:57.002Z,98719.38
2022-10-11T22:49:58.743Z,98710.91
2022-10-11T22:52:00.038Z,98714.38
2022-10-11T22:54:01.326Z,98707.50
2022-10-11T22:56:02.689Z,98705.78
2022-10-11T22:58:03.958Z,98714.97
2022-10-11T23:00:05.373Z,98712.59
2022-10-11T23:02:07.554Z,98706.69
2022-10-11T23:04:08.849Z,98712.31
2022-10-11T23:06:10.118Z,98713.91
2022-10-11T23:08:11.452Z,98713.91
2022-10-11T23:10:12.771Z,98714.81
2022-10-11T23:12:14.098Z,98709.53
2022-10-11T23:14:15.566Z,98714.66
2022-10-11T23:16:16.875Z,98716.47
2022-10-11T23:18:18.359Z,98709.59
2022-10-11T23:20:19.695Z,98715.69
2022-10-11T23:22:20.954Z,98715.56
2022-10-11T23:24:22.250Z,98719.84
2022-10-11T23:26:23.571Z,98716.47
2022-10-11T23:28:24.897Z,98718.94
2022-10-11T23:30:26.267Z,98715.53
2022-10-11T23:32:27.572Z,98711.34
2022-10-11T23:34:28.931Z,98713.91
2022-10-11T23:36:30.247Z,98706.28
2022-10-11T23:38:31.624Z,98709.75
2022-10-11T23:40:32.882Z,98708.09
2022-10-11T23:42:34.192Z,98711.47
2022-10-11T23:44:35.492Z,98715.72
2022-10-11T23:46:36.807Z,98712.06
2022-10-11T23:48:38.083Z,98715.13
2022-10-11T23:50:39.405Z,98717.66
2022-10-11T23:52:40.736Z,98719.72
2022-10-11T23:54:42.038Z,98721.16
2022-10-11T23:56:43.317Z,98711.56
2022-10-11T23:58:44.638Z,98713.31
